createdAt,value
2019-05-21T00:02:12.610Z,90.94
2019-05-21T00:04:42.628Z,90.84
2019-05-21T00:07:12.634Z,90.78
2019-05-21T00:09:42.667Z,91.31
2019-05-21T00:12:14.184Z,91.32
2019-05-21T00:14:44.212Z,91.46
2019-05-21T00:17:14.215Z,91.17
2019-05-21T00:19:44.243Z,91.20
2019-05-21T00:22:14.239Z,91.20
2019-05-21T00:24:44.383Z,91.00
2019-05-21T00:27:14.500Z,91.07
2019-05-21T00:30:20.927Z,91.34
2019-05-21T00:33:27.592Z,91.30
2019-05-21T00:36:34.660Z,91.29
2019-05-21T00:39:41.112Z,91.28
2019-05-21T00:42:09.961Z,91.23
2019-05-21T00:44:43.847Z,91.20
2019-05-21T00:47:16.561Z,91.48
2019-05-21T00:49:46.589Z,91.28
2019-05-21T00:52:16.581Z,91.09
2019-05-21T00:54:46.612Z,91.34
2019-05-21T00:57:16.615Z,91.27
2019-05-21T00:59:47.282Z,90.84
2019-05-21T01:02:17.280Z,90.96
2019-05-21T01:05:00.362Z,90.64
2019-05-21T01:07:22.155Z,90.89
2019-05-21T01:09:52.657Z,90.81
2019-05-21T01:12:22.683Z,90.65
2019-05-21T01:14:52.756Z,90.52
2019-05-21T01:17:22.799Z,90.75
2019-05-21T01:19:52.884Z,90.64
2019-05-21T01:22:23.761Z,90.90
2019-05-21T01:24:54.875Z,90.76
2019-05-21T01:27:24.880Z,90.77
2019-05-21T01:29:54.904Z,90.84
2019-05-21T01:32:24.990Z,90.41
2019-05-21T01:34:54.995Z,90.47
2019-05-21T01:37:25.022Z,90.57
2019-05-21T01:39:55.013Z,90.65
2019-05-21T01:42:25.037Z,90.82
2019-05-21T01:44:55.040Z,90.67
2019-05-21T01:47:25.566Z,90.70
2019-05-21T01:49:55.585Z,90.15
2019-05-21T01:52:25.599Z,90.21
2019-05-21T01:54:55.601Z,90.34
2019-05-21T01:57:25.616Z,90.15
2019-05-21T01:59:55.620Z,90.40
2019-05-21T02:02:25.657Z,90.66
2019-05-21T02:04:55.687Z,90.96
2019-05-21T02:07:25.676Z,90.71
2019-05-21T02:09:58.729Z,90.79
2019-05-21T02:12:28.859Z,90.75
2019-05-21T02:14:59.201Z,90.90
2019-05-21T02:17:29.842Z,90.63
2019-05-21T02:19:59.861Z,90.64
2019-05-21T02:22:29.873Z,90.63
2019-05-21T02:24:59.893Z,90.56
2019-05-21T02:27:29.894Z,90.50
2019-05-21T02:29:59.926Z,90.63
2019-05-21T02:32:31.556Z,90.37
2019-05-21T02:35:01.589Z,90.54
2019-05-21T02:37:31.586Z,90.29
2019-05-21T02:40:01.589Z,90.27
2019-05-21T02:42:31.606Z,90.45
2019-05-21T02:45:01.775Z,90.52
2019-05-21T02:47:31.845Z,90.52
2019-05-21T02:50:03.480Z,90.70
2019-05-21T02:52:35.017Z,90.41
2019-05-21T02:55:06.826Z,90.32
2019-05-21T02:57:41.306Z,90.31
2019-05-21T03:00:21.351Z,90.25
2019-05-21T03:02:51.509Z,90.49
2019-05-21T03:05:21.534Z,90.94
2019-05-21T03:07:51.969Z,91.13
2019-05-21T03:10:23.080Z,91.05
2019-05-21T03:12:53.170Z,90.93
2019-05-21T03:15:23.335Z,90.65
2019-05-21T03:17:54.397Z,90.63
2019-05-21T03:20:24.494Z,90.44
2019-05-21T03:22:54.572Z,90.19
2019-05-21T03:25:27.427Z,90.15
2019-05-21T03:27:57.428Z,90.51
2019-05-21T03:30:27.443Z,90.75
2019-05-21T03:32:57.528Z,90.90
2019-05-21T03:35:27.539Z,91.05
2019-05-21T03:37:57.525Z,90.68
2019-05-21T03:40:27.562Z,90.84
2019-05-21T03:42:57.638Z,90.93
2019-05-21T03:45:27.643Z,91.04
2019-05-21T03:47:58.853Z,91.01
2019-05-21T03:50:28.954Z,91.00
2019-05-21T03:53:00.557Z,90.61
2019-05-21T03:55:32.549Z,90.87
2019-05-21T03:58:02.546Z,90.88
2019-05-21T04:00:32.581Z,90.88
2019-05-21T04:03:02.606Z,90.50
2019-05-21T04:05:32.631Z,90.40
2019-05-21T04:08:02.716Z,90.90
2019-05-21T04:10:32.721Z,90.98
2019-05-21T04:13:06.227Z,91.09
2019-05-21T04:15:39.880Z,91.19
2019-05-21T04:18:11.632Z,91.41
2019-05-21T04:20:41.664Z,91.52
2019-05-21T04:23:12.911Z,91.35
2019-05-21T04:25:43.073Z,91.24
2019-05-21T04:28:13.240Z,91.09
2019-05-21T04:30:45.974Z,91.16
2019-05-21T04:33:15.973Z,91.09
2019-05-21T04:35:47.534Z,91.10
2019-05-21T04:38:20.821Z,90.98
2019-05-21T04:40:51.822Z,91.21
2019-05-21T04:43:21.902Z,91.36
2019-05-21T04:45:51.922Z,91.09
2019-05-21T04:48:21.955Z,90.99
2019-05-21T04:50:51.968Z,91.03
2019-05-21T04:53:22.000Z,90.71
2019-05-21T04:55:52.011Z,90.82
2019-05-21T04:58:22.041Z,90.73
2019-05-21T05:00:52.042Z,91.24
2019-05-21T05:03:22.151Z,91.02
2019-05-21T05:05:52.147Z,91.48
2019-05-21T05:08:22.270Z,91.45
2019-05-21T05:10:52.297Z,91.46
2019-05-21T05:13:22.402Z,91.98
2019-05-21T05:15:52.413Z,92.07
2019-05-21T05:18:22.513Z,92.28
2019-05-21T05:20:52.524Z,92.44
2019-05-21T05:23:25.672Z,92.16
2019-05-21T05:25:55.747Z,92.14
2019-05-21T05:28:25.777Z,91.96
2019-05-21T05:30:57.396Z,91.94
2019-05-21T05:33:27.434Z,92.47
2019-05-21T05:35:57.466Z,92.10
2019-05-21T05:38:27.541Z,91.97
2019-05-21T05:40:57.618Z,91.87
2019-05-21T05:43:28.652Z,92.00
2019-05-21T05:46:00.603Z,92.12
2019-05-21T05:48:32.410Z,91.96
2019-05-21T05:51:08.959Z,92.00
2019-05-21T05:53:57.381Z,92.00
2019-05-21T05:56:29.461Z,91.81
2019-05-21T05:58:59.513Z,92.08
2019-05-21T06:01:31.407Z,91.90
2019-05-21T06:04:03.387Z,91.91
2019-05-21T06:06:33.453Z,91.74
2019-05-21T06:09:05.450Z,91.70
2019-05-21T06:11:35.590Z,91.62
2019-05-21T06:14:05.791Z,91.44
2019-05-21T06:16:35.886Z,91.42
2019-05-21T06:19:06.052Z,91.47
2019-05-21T06:21:36.087Z,91.19
2019-05-21T06:24:06.273Z,91.22
2019-05-21T06:26:36.298Z,91.16
2019-05-21T06:29:06.378Z,91.11
2019-05-21T06:31:36.534Z,90.85
2019-05-21T06:34:06.626Z,90.72
2019-05-21T06:36:36.725Z,90.69
2019-05-21T06:39:07.774Z,90.63
2019-05-21T06:41:37.799Z,90.30
2019-05-21T06:44:07.873Z,90.80
2019-05-21T06:46:38.577Z,90.83
2019-05-21T06:49:08.749Z,90.55
2019-05-21T06:51:38.879Z,90.66
2019-05-21T06:54:08.949Z,90.16
2019-05-21T06:56:38.971Z,91.04
2019-05-21T06:59:09.005Z,91.25
2019-05-21T07:01:39.009Z,91.58
2019-05-21T07:04:09.240Z,91.32
2019-05-21T07:06:39.231Z,91.51
2019-05-21T07:09:11.806Z,90.97
2019-05-21T07:11:41.825Z,91.00
2019-05-21T07:14:11.919Z,91.43
2019-05-21T07:16:41.955Z,91.32
2019-05-21T07:19:11.980Z,91.23
2019-05-21T07:21:42.031Z,90.87
2019-05-21T07:24:12.177Z,91.05
2019-05-21T07:26:42.308Z,90.89
2019-05-21T07:29:13.371Z,91.25
2019-05-21T07:31:43.531Z,91.31
2019-05-21T07:34:13.607Z,91.25
2019-05-21T07:36:43.643Z,90.72
2019-05-21T07:39:13.737Z,90.56
2019-05-21T07:41:43.751Z,90.64
2019-05-21T07:44:13.814Z,90.52
2019-05-21T07:46:43.857Z,90.63
2019-05-21T07:49:13.936Z,90.26
2019-05-21T07:51:43.981Z,90.45
2019-05-21T07:54:13.983Z,90.35
2019-05-21T07:56:44.199Z,90.08
2019-05-21T07:59:14.274Z,89.47
2019-05-21T08:01:44.319Z,89.73
2019-05-21T08:04:14.397Z,89.90
2019-05-21T08:06:44.668Z,89.18
2019-05-21T08:09:15.207Z,88.91
2019-05-21T08:11:47.099Z,88.96
2019-05-21T08:14:17.031Z,89.18
2019-05-21T08:16:47.036Z,88.65
2019-05-21T08:19:17.074Z,88.68
2019-05-21T08:21:48.641Z,88.68
2019-05-21T08:24:18.734Z,88.65
2019-05-21T08:26:48.767Z,88.46
2019-05-21T08:29:18.808Z,88.44
2019-05-21T08:31:48.967Z,88.83
2019-05-21T08:34:19.019Z,88.20
2019-05-21T08:36:49.194Z,88.71
2019-05-21T08:39:28.197Z,88.46
2019-05-21T08:41:52.608Z,88.39
2019-05-21T08:44:22.636Z,88.42
2019-05-21T08:46:52.705Z,88.36
2019-05-21T08:49:22.747Z,87.61
2019-05-21T08:51:52.775Z,88.28
2019-05-21T08:54:39.769Z,88.68
2019-05-21T08:57:09.927Z,88.20
2019-05-21T08:59:40.097Z,87.92
2019-05-21T09:02:10.442Z,87.16
2019-05-21T09:04:46.502Z,87.55
2019-05-21T09:07:12.461Z,87.18
2019-05-21T09:09:50.154Z,87.52
2019-05-21T09:12:14.516Z,87.80
2019-05-21T09:14:44.614Z,88.00
2019-05-21T09:17:14.665Z,87.88
2019-05-21T09:19:44.739Z,87.61
2019-05-21T09:22:14.843Z,87.69
2019-05-21T09:24:44.850Z,87.83
2019-05-21T09:27:15.039Z,87.18
2019-05-21T09:29:45.057Z,87.19
2019-05-21T09:32:15.120Z,87.06
2019-05-21T09:34:49.189Z,87.40
2019-05-21T09:37:19.681Z,87.34
2019-05-21T09:39:48.800Z,87.65
2019-05-21T09:42:19.034Z,87.70
2019-05-21T09:44:49.098Z,87.74
2019-05-21T09:47:19.146Z,87.66
2019-05-21T09:49:49.151Z,87.72
2019-05-21T09:52:19.181Z,88.14
2019-05-21T09:54:49.193Z,88.24
2019-05-21T09:57:20.877Z,88.21
2019-05-21T09:59:55.196Z,87.86
2019-05-21T10:02:26.870Z,87.79
2019-05-21T10:04:56.960Z,88.05
2019-05-21T10:07:39.315Z,87.84
2019-05-21T10:09:58.778Z,88.30
2019-05-21T10:12:28.804Z,88.42
2019-05-21T10:14:58.841Z,87.97
2019-05-21T10:17:28.879Z,88.18
2019-05-21T10:19:59.157Z,88.13
2019-05-21T10:22:29.258Z,88.53
2019-05-21T10:24:59.282Z,88.47
2019-05-21T10:27:29.304Z,88.29
2019-05-21T10:29:59.352Z,88.57
2019-05-21T10:32:29.416Z,88.88
2019-05-21T10:34:59.516Z,88.68
2019-05-21T10:37:30.051Z,88.81
2019-05-21T10:40:00.138Z,89.30
2019-05-21T10:42:30.194Z,87.82
2019-05-21T10:45:00.203Z,87.75
2019-05-21T10:47:30.200Z,87.61
2019-05-21T10:50:00.204Z,86.99
2019-05-21T10:52:30.294Z,87.02
2019-05-21T10:55:00.296Z,88.04
2019-05-21T10:57:30.486Z,88.47
2019-05-21T11:00:00.458Z,88.98
2019-05-21T11:02:32.121Z,88.30
2019-05-21T11:05:06.625Z,89.32
2019-05-21T11:07:36.628Z,89.54
2019-05-21T11:10:08.326Z,89.00
2019-05-21T11:12:39.518Z,89.45
2019-05-21T11:15:09.920Z,89.37
2019-05-21T11:17:53.301Z,89.45
2019-05-21T11:20:12.635Z,88.80
2019-05-21T11:22:42.722Z,88.51
2019-05-21T11:25:13.393Z,88.14
2019-05-21T11:27:43.459Z,87.99
2019-05-21T11:30:13.667Z,88.33
2019-05-21T11:32:43.808Z,87.96
2019-05-21T11:35:14.279Z,88.36
2019-05-21T11:37:47.688Z,87.75
2019-05-21T11:40:17.413Z,87.45
2019-05-21T11:42:47.517Z,87.92
2019-05-21T11:45:31.086Z,87.26
2019-05-21T11:47:54.276Z,87.97
2019-05-21T11:50:22.831Z,86.33
2019-05-21T11:52:52.917Z,87.07
2019-05-21T11:55:23.022Z,87.40
2019-05-21T11:57:53.064Z,87.55
2019-05-21T12:00:25.689Z,87.88
2019-05-21T12:02:55.850Z,86.47
2019-05-21T12:05:30.642Z,86.48
2019-05-21T12:08:01.730Z,86.56
2019-05-21T12:10:31.751Z,86.66
2019-05-21T12:13:01.810Z,86.39
2019-05-21T12:15:31.905Z,86.56
2019-05-21T12:18:03.000Z,86.16
2019-05-21T12:20:36.650Z,85.73
2019-05-21T12:23:07.264Z,86.44
2019-05-21T12:25:37.363Z,86.12
2019-05-21T12:28:10.981Z,85.61
2019-05-21T12:30:39.286Z,85.48
2019-05-21T12:33:09.342Z,86.19
2019-05-21T12:35:39.372Z,84.73
2019-05-21T12:38:09.390Z,86.46
2019-05-21T12:40:39.470Z,86.37
2019-05-21T12:43:09.567Z,87.12
2019-05-21T12:45:39.868Z,87.23
2019-05-21T12:48:09.903Z,86.96
2019-05-21T12:50:40.030Z,87.31
2019-05-21T12:53:10.107Z,86.64
2019-05-21T12:55:40.116Z,86.70
2019-05-21T12:58:10.212Z,86.98
2019-05-21T13:00:40.652Z,86.65
2019-05-21T13:03:10.691Z,85.14
2019-05-21T13:05:40.715Z,85.93
2019-05-21T13:08:10.741Z,85.89
2019-05-21T13:10:40.759Z,85.85
2019-05-21T13:13:10.959Z,86.09
2019-05-21T13:15:41.003Z,85.48
2019-05-21T13:18:12.636Z,85.00
2019-05-21T13:20:42.720Z,85.70
2019-05-21T13:23:12.941Z,85.83
2019-05-21T13:25:43.197Z,86.31
2019-05-21T13:28:13.273Z,86.15
2019-05-21T13:30:43.372Z,86.06
2019-05-21T13:33:13.383Z,85.49
2019-05-21T13:35:43.475Z,85.83
2019-05-21T13:38:13.905Z,85.15
2019-05-21T13:40:44.703Z,83.39
2019-05-21T13:43:14.859Z,83.25
2019-05-21T13:45:46.124Z,82.98
2019-05-21T13:48:16.170Z,83.19
2019-05-21T13:50:46.185Z,82.89
2019-05-21T13:53:16.395Z,82.06
2019-05-21T13:55:46.472Z,81.06
2019-05-21T13:58:16.569Z,81.65
2019-05-21T14:00:56.562Z,82.46
2019-05-21T14:03:26.834Z,82.35
2019-05-21T14:05:56.845Z,82.42
2019-05-21T14:08:27.196Z,83.47
2019-05-21T14:10:57.289Z,83.13
2019-05-21T14:13:27.394Z,83.48
2019-05-21T14:15:57.426Z,84.71
2019-05-21T14:18:27.552Z,84.86
2019-05-21T14:20:57.571Z,85.17
2019-05-21T14:23:27.603Z,85.63
2019-05-21T14:25:57.766Z,85.71
2019-05-21T14:28:27.973Z,86.34
2019-05-21T14:30:58.118Z,86.45
2019-05-21T14:33:29.344Z,86.15
2019-05-21T14:35:59.374Z,86.09
2019-05-21T14:38:29.406Z,86.74
2019-05-21T14:40:59.514Z,86.86
2019-05-21T14:43:29.594Z,86.98
2019-05-21T14:45:59.630Z,87.15
2019-05-21T14:48:29.673Z,86.75
2019-05-21T14:50:59.676Z,86.58
2019-05-21T14:53:29.771Z,86.99
2019-05-21T14:55:59.888Z,87.46
2019-05-21T14:58:29.903Z,87.51
2019-05-21T15:01:00.014Z,88.18
2019-05-21T15:03:30.064Z,88.35
2019-05-21T15:06:00.059Z,88.65
2019-05-21T15:08:30.183Z,88.02
2019-05-21T15:11:00.186Z,88.69
2019-05-21T15:13:30.289Z,88.16
2019-05-21T15:16:00.428Z,88.82
2019-05-21T15:18:30.481Z,88.37
2019-05-21T15:21:05.900Z,88.37
2019-05-21T15:23:36.119Z,88.36
2019-05-21T15:26:06.674Z,87.85
2019-05-21T15:28:39.532Z,87.72
2019-05-21T15:31:09.756Z,87.29
2019-05-21T15:33:39.794Z,87.92
2019-05-21T15:36:11.743Z,87.36
2019-05-21T15:38:50.230Z,87.23
2019-05-21T15:41:13.488Z,87.18
2019-05-21T15:43:43.506Z,87.08
2019-05-21T15:46:14.690Z,87.16
2019-05-21T15:48:44.698Z,86.14
2019-05-21T15:51:14.718Z,86.44
2019-05-21T15:53:44.725Z,86.40
2019-05-21T15:56:15.394Z,86.51
2019-05-21T15:58:45.541Z,86.41
2019-05-21T16:01:15.569Z,86.33
2019-05-21T16:03:45.592Z,86.71
2019-05-21T16:06:15.616Z,86.88
2019-05-21T16:08:47.290Z,86.53
2019-05-21T16:11:27.973Z,86.66
2019-05-21T16:13:49.112Z,86.25
2019-05-21T16:16:19.236Z,86.45
2019-05-21T16:18:49.268Z,86.13
2019-05-21T16:21:19.286Z,86.02
2019-05-21T16:23:49.308Z,85.24
2019-05-21T16:26:23.495Z,85.12
2019-05-21T16:28:53.647Z,84.97
2019-05-21T16:31:23.664Z,84.87
2019-05-21T16:33:53.841Z,84.36
2019-05-21T16:36:23.914Z,84.07
2019-05-21T16:38:54.064Z,84.45
2019-05-21T16:41:25.675Z,84.36
2019-05-21T16:43:57.546Z,83.90
2019-05-21T16:46:27.558Z,83.96
2019-05-21T16:48:57.591Z,83.79
2019-05-21T16:51:27.974Z,83.33
2019-05-21T16:53:59.233Z,84.34
2019-05-21T16:56:29.219Z,84.90
2019-05-21T16:58:59.256Z,84.60
2019-05-21T17:01:29.423Z,84.76
2019-05-21T17:04:00.370Z,85.05
2019-05-21T17:06:30.631Z,85.38
2019-05-21T17:09:00.724Z,85.18
2019-05-21T17:11:32.353Z,84.92
2019-05-21T17:14:02.387Z,84.70
2019-05-21T17:16:32.398Z,84.66
2019-05-21T17:19:02.641Z,85.01
2019-05-21T17:21:32.724Z,84.90
2019-05-21T17:24:02.770Z,84.94
2019-05-21T17:26:32.793Z,84.73
2019-05-21T17:29:06.592Z,84.68
2019-05-21T17:31:36.924Z,85.06
2019-05-21T17:34:08.676Z,84.92
2019-05-21T17:36:38.811Z,84.49
2019-05-21T17:39:08.971Z,84.36
2019-05-21T17:41:39.050Z,84.14
2019-05-21T17:44:09.955Z,84.72
2019-05-21T17:46:39.985Z,84.94
2019-05-21T17:49:10.026Z,85.02
2019-05-21T17:51:40.280Z,85.16
2019-05-21T17:54:10.457Z,84.87
2019-05-21T17:56:40.622Z,84.53
2019-05-21T17:59:12.731Z,84.80
2019-05-21T18:01:43.671Z,84.90
2019-05-21T18:04:14.233Z,84.37
2019-05-21T18:06:44.771Z,84.32
2019-05-21T18:09:17.682Z,84.69
2019-05-21T18:11:48.315Z,84.45
2019-05-21T18:14:20.046Z,84.48
2019-05-21T18:16:50.204Z,85.09
2019-05-21T18:19:21.001Z,84.91
2019-05-21T18:21:51.225Z,85.37
2019-05-21T18:24:21.416Z,85.21
2019-05-21T18:26:51.602Z,85.23
2019-05-21T18:29:24.381Z,84.80
2019-05-21T18:31:54.452Z,84.95
2019-05-21T18:34:24.635Z,85.14
2019-05-21T18:36:54.738Z,85.24
2019-05-21T18:39:25.534Z,84.92
2019-05-21T18:41:55.742Z,85.31
2019-05-21T18:44:28.668Z,85.47
2019-05-21T18:46:58.757Z,85.28
2019-05-21T18:49:28.856Z,85.41
2019-05-21T18:51:58.933Z,85.26
2019-05-21T18:54:28.968Z,85.67
2019-05-21T18:56:59.214Z,85.31
2019-05-21T18:59:29.413Z,85.68
2019-05-21T19:01:59.440Z,85.24
2019-05-21T19:04:31.980Z,85.78
2019-05-21T19:07:02.147Z,85.80
2019-05-21T19:09:32.418Z,85.85
2019-05-21T19:12:04.952Z,85.63
2019-05-21T19:14:35.228Z,85.73
2019-05-21T19:17:05.382Z,85.78
2019-05-21T19:19:35.587Z,85.39
2019-05-21T19:22:06.100Z,85.21
2019-05-21T19:24:37.714Z,85.28
2019-05-21T19:27:10.747Z,85.54
2019-05-21T19:29:41.680Z,84.85
2019-05-21T19:32:12.033Z,85.15
2019-05-21T19:34:42.142Z,85.05
2019-05-21T19:37:13.120Z,85.47
2019-05-21T19:39:43.237Z,84.87
2019-05-21T19:42:13.498Z,84.79
2019-05-21T19:44:43.520Z,85.09
2019-05-21T19:47:13.866Z,85.16
2019-05-21T19:49:43.873Z,84.96
2019-05-21T19:52:15.584Z,84.99
2019-05-21T19:54:48.365Z,85.15
2019-05-21T19:57:19.934Z,85.21
2019-05-21T19:59:50.309Z,85.04
2019-05-21T20:02:20.341Z,84.97
2019-05-21T20:04:51.057Z,85.17
2019-05-21T20:07:22.137Z,84.67
2019-05-21T20:09:52.551Z,85.04
2019-05-21T20:12:24.160Z,85.02
2019-05-21T20:14:54.536Z,85.29
2019-05-21T20:17:26.079Z,85.56
2019-05-21T20:19:59.673Z,84.92
2019-05-21T20:22:30.671Z,84.45
2019-05-21T20:25:01.283Z,84.85
2019-05-21T20:27:32.408Z,84.32
2019-05-21T20:30:12.103Z,84.14
2019-05-21T20:32:36.605Z,84.16
2019-05-21T20:35:08.938Z,84.34
2019-05-21T20:37:40.835Z,84.35
2019-05-21T20:40:12.976Z,84.38
2019-05-21T20:42:47.157Z,83.74
2019-05-21T20:45:21.688Z,83.74
2019-05-21T20:47:51.792Z,83.95
2019-05-21T20:50:23.176Z,84.02
2019-05-21T20:52:53.620Z,83.73
2019-05-21T20:55:25.595Z,83.61
2019-05-21T20:57:59.023Z,83.83
2019-05-21T21:00:30.494Z,84.35
2019-05-21T21:03:00.598Z,84.31
2019-05-21T21:05:30.953Z,83.92
2019-05-21T21:08:01.184Z,84.52
2019-05-21T21:10:31.285Z,84.30
2019-05-21T21:13:02.430Z,84.30
2019-05-21T21:15:33.237Z,84.10
2019-05-21T21:18:03.576Z,83.80
2019-05-21T21:20:34.538Z,84.03
2019-05-21T21:23:05.058Z,83.61
2019-05-21T21:25:35.161Z,83.90
2019-05-21T21:28:07.050Z,83.75
2019-05-21T21:30:37.494Z,83.91
2019-05-21T21:33:12.571Z,83.67
2019-05-21T21:35:43.511Z,83.61
2019-05-21T21:38:18.277Z,83.43
2019-05-21T21:40:48.564Z,83.07
2019-05-21T21:43:18.639Z,83.40
2019-05-21T21:45:49.346Z,82.96
2019-05-21T21:48:20.060Z,83.19
2019-05-21T21:50:51.088Z,82.97
2019-05-21T21:53:21.554Z,83.20
2019-05-21T21:55:54.837Z,82.88
2019-05-21T21:58:25.147Z,83.20
2019-05-21T22:01:11.942Z,82.88
2019-05-21T22:03:45.555Z,82.91
2019-05-21T22:06:17.357Z,82.83
2019-05-21T22:08:47.633Z,82.80
2019-05-21T22:11:19.557Z,82.65
2019-05-21T22:13:49.830Z,82.53
2019-05-21T22:16:20.193Z,82.18
2019-05-21T22:18:50.694Z,82.32
2019-05-21T22:21:21.019Z,82.43
2019-05-21T22:23:51.864Z,82.61
2019-05-21T22:26:22.208Z,82.46
2019-05-21T22:28:52.431Z,82.65
2019-05-21T22:31:22.521Z,82.72
2019-05-21T22:33:52.659Z,82.69
2019-05-21T22:36:23.239Z,82.73
2019-05-21T22:38:53.455Z,82.53
2019-05-21T22:41:23.564Z,82.35
2019-05-21T22:43:53.743Z,82.62
2019-05-21T22:46:23.913Z,82.43
2019-05-21T22:48:54.175Z,82.08
2019-05-21T22:51:24.287Z,82.49
2019-05-21T22:53:54.371Z,82.38
2019-05-21T22:56:24.379Z,82.46
2019-05-21T22:58:56.014Z,82.02
2019-05-21T23:01:27.826Z,82.27
2019-05-21T23:04:00.551Z,81.90
2019-05-21T23:06:32.330Z,82.02
2019-05-21T23:09:02.843Z,81.86
2019-05-21T23:11:33.081Z,81.97
2019-05-21T23:14:03.449Z,81.75
2019-05-21T23:16:35.070Z,81.96
2019-05-21T23:19:24.388Z,81.73
2019-05-21T23:21:59.202Z,82.16
2019-05-21T23:24:29.845Z,82.50
2019-05-21T23:27:00.383Z,82.84
2019-05-21T23:29:30.805Z,82.98
2019-05-21T23:32:01.079Z,82.93
2019-05-21T23:34:31.758Z,82.99
2019-05-21T23:37:02.554Z,82.86
2019-05-21T23:39:35.300Z,82.92
2019-05-21T23:42:07.816Z,83.14
2019-05-21T23:44:38.067Z,82.86
2019-05-21T23:47:09.732Z,82.95
2019-05-21T23:49:43.090Z,83.27
2019-05-21T23:52:15.782Z,83.12
2019-05-21T23:54:47.435Z,83.30
2019-05-21T23:57:22.613Z,82.96
2019-05-21T23:59:52.785Z,83.42
